sensor_id;sensor_type;location;lat;lon;timestamp;P1;durP1;ratioP1;P2;durP2;ratioP2
11962;SDS011;62678;52.130;5.584;2022-10-16T00:01:04;5.65;;;2.72;;
11962;SDS011;62678;52.130;5.584;2022-10-16T00:03:32;7.60;;;3.20;;
11962;SDS011;62678;52.130;5.584;2022-10-16T00:05:59;5.97;;;3.20;;
11962;SDS011;62678;52.130;5.584;2022-10-16T00:08:27;7.80;;;3.30;;
11962;SDS011;62678;52.130;5.584;2022-10-16T00:10:58;7.75;;;3.30;;
11962;SDS011;62678;52.130;5.584;2022-10-16T00:13:25;8.93;;;3.17;;
11962;SDS011;62678;52.130;5.584;2022-10-16T00:15:55;5.65;;;3.30;;
11962;SDS011;62678;52.130;5.584;2022-10-16T00:18:23;10.30;;;3.40;;
11962;SDS011;62678;52.130;5.584;2022-10-16T00:20:51;7.85;;;3.55;;
11962;SDS011;62678;52.130;5.584;2022-10-16T00:23:18;6.72;;;3.42;;
11962;SDS011;62678;52.130;5.584;2022-10-16T00:25:45;8.65;;;3.30;;
11962;SDS011;62678;52.130;5.584;2022-10-16T00:28:21;5.47;;;3.40;;
11962;SDS011;62678;52.130;5.584;2022-10-16T00:30:48;4.82;;;2.85;;
11962;SDS011;62678;52.130;5.584;2022-10-16T00:33:16;6.35;;;3.10;;
11962;SDS011;62678;52.130;5.584;2022-10-16T00:35:43;6.68;;;3.85;;
11962;SDS011;62678;52.130;5.584;2022-10-16T00:38:10;4.75;;;2.97;;
11962;SDS011;62678;52.130;5.584;2022-10-16T00:40:40;7.07;;;2.70;;
11962;SDS011;62678;52.130;5.584;2022-10-16T00:43:13;4.22;;;2.70;;
11962;SDS011;62678;52.130;5.584;2022-10-16T00:45:57;10.07;;;3.22;;
11962;SDS011;62678;52.130;5.584;2022-10-16T00:48:26;4.47;;;2.60;;
11962;SDS011;62678;52.130;5.584;2022-10-16T00:50:53;6.78;;;3.08;;
11962;SDS011;62678;52.130;5.584;2022-10-16T00:53:20;6.47;;;2.88;;
11962;SDS011;62678;52.130;5.584;2022-10-16T00:55:48;7.05;;;2.60;;
11962;SDS011;62678;52.130;5.584;2022-10-16T00:58:14;7.75;;;3.10;;
11962;SDS011;62678;52.130;5.584;2022-10-16T01:00:41;4.68;;;2.70;;
11962;SDS011;62678;52.130;5.584;2022-10-16T01:03:21;4.00;;;2.70;;
11962;SDS011;62678;52.130;5.584;2022-10-16T01:05:53;4.45;;;2.53;;
11962;SDS011;62678;52.130;5.584;2022-10-16T01:08:30;6.43;;;2.75;;
11962;SDS011;62678;52.130;5.584;2022-10-16T01:11:06;7.80;;;2.95;;
11962;SDS011;62678;52.130;5.584;2022-10-16T01:13:40;5.30;;;3.10;;
11962;SDS011;62678;52.130;5.584;2022-10-16T01:16:12;5.50;;;2.92;;
11962;SDS011;62678;52.130;5.584;2022-10-16T01:18:44;5.13;;;3.08;;
11962;SDS011;62678;52.130;5.584;2022-10-16T01:21:18;6.70;;;2.92;;
11962;SDS011;62678;52.130;5.584;2022-10-16T01:23:50;5.25;;;2.80;;
11962;SDS011;62678;52.130;5.584;2022-10-16T01:26:30;5.68;;;3.15;;
11962;SDS011;62678;52.130;5.584;2022-10-16T01:29:05;7.55;;;3.22;;
11962;SDS011;62678;52.130;5.584;2022-10-16T01:31:39;6.00;;;3.17;;
11962;SDS011;62678;52.130;5.584;2022-10-16T01:34:10;8.35;;;3.15;;
11962;SDS011;62678;52.130;5.584;2022-10-16T01:36:42;6.95;;;3.40;;
11962;SDS011;62678;52.130;5.584;2022-10-16T01:39:12;6.07;;;3.00;;
11962;SDS011;62678;52.130;5.584;2022-10-16T01:41:41;6.28;;;3.00;;
11962;SDS011;62678;52.130;5.584;2022-10-16T01:44:15;5.63;;;2.92;;
11962;SDS011;62678;52.130;5.584;2022-10-16T01:46:46;4.57;;;3.08;;
11962;SDS011;62678;52.130;5.584;2022-10-16T01:49:16;4.43;;;3.00;;
11962;SDS011;62678;52.130;5.584;2022-10-16T01:51:45;6.82;;;3.40;;
11962;SDS011;62678;52.130;5.584;2022-10-16T01:54:16;6.00;;;3.10;;
11962;SDS011;62678;52.130;5.584;2022-10-16T01:56:46;8.60;;;3.22;;
11962;SDS011;62678;52.130;5.584;2022-10-16T01:59:18;5.03;;;3.42;;
11962;SDS011;62678;52.130;5.584;2022-10-16T02:01:47;6.20;;;3.60;;
11962;SDS011;62678;52.130;5.584;2022-10-16T02:04:19;6.10;;;3.20;;
11962;SDS011;62678;52.130;5.584;2022-10-16T02:06:47;7.65;;;3.75;;
11962;SDS011;62678;52.130;5.584;2022-10-16T02:09:14;5.15;;;3.10;;
11962;SDS011;62678;52.130;5.584;2022-10-16T02:11:42;5.85;;;3.05;;
11962;SDS011;62678;52.130;5.584;2022-10-16T02:14:08;4.72;;;3.35;;
11962;SDS011;62678;52.130;5.584;2022-10-16T02:16:38;4.05;;;3.00;;
11962;SDS011;62678;52.130;5.584;2022-10-16T02:19:06;6.13;;;3.30;;
11962;SDS011;62678;52.130;5.584;2022-10-16T02:21:36;8.95;;;3.22;;
11962;SDS011;62678;52.130;5.584;2022-10-16T02:24:08;5.22;;;3.17;;
11962;SDS011;62678;52.130;5.584;2022-10-16T02:26:45;5.22;;;3.30;;
11962;SDS011;62678;52.130;5.584;2022-10-16T02:29:16;4.97;;;3.47;;
11962;SDS011;62678;52.130;5.584;2022-10-16T02:31:50;4.43;;;3.40;;
11962;SDS011;62678;52.130;5.584;2022-10-16T02:34:20;9.75;;;3.30;;
11962;SDS011;62678;52.130;5.584;2022-10-16T02:36:48;4.20;;;2.90;;
11962;SDS011;62678;52.130;5.584;2022-10-16T02:39:17;5.35;;;3.15;;
11962;SDS011;62678;52.130;5.584;2022-10-16T02:41:45;6.75;;;2.90;;
11962;SDS011;62678;52.130;5.584;2022-10-16T02:44:12;5.85;;;3.30;;
11962;SDS011;62678;52.130;5.584;2022-10-16T02:46:39;6.55;;;3.30;;
11962;SDS011;62678;52.130;5.584;2022-10-16T02:49:07;6.97;;;3.25;;
11962;SDS011;62678;52.130;5.584;2022-10-16T02:51:34;6.95;;;3.53;;
11962;SDS011;62678;52.130;5.584;2022-10-16T02:54:01;6.32;;;3.63;;
11962;SDS011;62678;52.130;5.584;2022-10-16T02:56:28;6.20;;;3.10;;
11962;SDS011;62678;52.130;5.584;2022-10-16T02:58:55;6.72;;;3.30;;
11962;SDS011;62678;52.130;5.584;2022-10-16T03:01:21;5.30;;;3.60;;
11962;SDS011;62678;52.130;5.584;2022-10-16T03:03:48;6.20;;;3.60;;
11962;SDS011;62678;52.130;5.584;2022-10-16T03:06:16;7.07;;;3.67;;
11962;SDS011;62678;52.130;5.584;2022-10-16T03:08:44;5.47;;;3.38;;
11962;SDS011;62678;52.130;5.584;2022-10-16T03:11:10;8.30;;;3.45;;
11962;SDS011;62678;52.130;5.584;2022-10-16T03:13:37;10.25;;;3.90;;
11962;SDS011;62678;52.130;5.584;2022-10-16T03:16:04;6.38;;;3.50;;
11962;SDS011;62678;52.130;5.584;2022-10-16T03:18:30;5.95;;;3.35;;
11962;SDS011;62678;52.130;5.584;2022-10-16T03:20:57;8.00;;;3.38;;
11962;SDS011;62678;52.130;5.584;2022-10-16T03:23:25;3.88;;;3.10;;
11962;SDS011;62678;52.130;5.584;2022-10-16T03:25:52;3.78;;;2.85;;
11962;SDS011;62678;52.130;5.584;2022-10-16T03:28:19;7.05;;;3.40;;
11962;SDS011;62678;52.130;5.584;2022-10-16T03:30:45;3.72;;;3.30;;
11962;SDS011;62678;52.130;5.584;2022-10-16T03:33:12;6.13;;;3.50;;
11962;SDS011;62678;52.130;5.584;2022-10-16T03:35:39;5.70;;;3.70;;
11962;SDS011;62678;52.130;5.584;2022-10-16T03:38:06;4.85;;;3.38;;
11962;SDS011;62678;52.130;5.584;2022-10-16T03:40:34;5.95;;;3.40;;
11962;SDS011;62678;52.130;5.584;2022-10-16T03:43:00;6.88;;;3.42;;
11962;SDS011;62678;52.130;5.584;2022-10-16T03:45:27;5.40;;;3.50;;
11962;SDS011;62678;52.130;5.584;2022-10-16T03:47:54;6.72;;;3.42;;
11962;SDS011;62678;52.130;5.584;2022-10-16T03:50:21;5.03;;;3.75;;
11962;SDS011;62678;52.130;5.584;2022-10-16T03:52:47;6.75;;;3.50;;
11962;SDS011;62678;52.130;5.584;2022-10-16T03:55:14;5.82;;;3.85;;
11962;SDS011;62678;52.130;5.584;2022-10-16T03:57:42;8.07;;;3.90;;
11962;SDS011;62678;52.130;5.584;2022-10-16T04:00:10;6.50;;;3.53;;
11962;SDS011;62678;52.130;5.584;2022-10-16T04:02:38;4.20;;;3.80;;
11962;SDS011;62678;52.130;5.584;2022-10-16T04:05:06;4.85;;;3.17;;
11962;SDS011;62678;52.130;5.584;2022-10-16T04:07:34;7.55;;;3.58;;
11962;SDS011;62678;52.130;5.584;2022-10-16T04:10:01;3.85;;;3.42;;
11962;SDS011;62678;52.130;5.584;2022-10-16T04:12:28;6.95;;;3.80;;
11962;SDS011;62678;52.130;5.584;2022-10-16T04:14:56;4.70;;;2.80;;
11962;SDS011;62678;52.130;5.584;2022-10-16T04:17:23;7.50;;;3.40;;
11962;SDS011;62678;52.130;5.584;2022-10-16T04:19:49;6.80;;;3.47;;
11962;SDS011;62678;52.130;5.584;2022-10-16T04:22:16;4.70;;;3.78;;
11962;SDS011;62678;52.130;5.584;2022-10-16T04:24:43;11.77;;;3.40;;
11962;SDS011;62678;52.130;5.584;2022-10-16T04:27:09;4.57;;;3.20;;
11962;SDS011;62678;52.130;5.584;2022-10-16T04:29:36;6.43;;;3.55;;
11962;SDS011;62678;52.130;5.584;2022-10-16T04:32:05;5.50;;;3.40;;
11962;SDS011;62678;52.130;5.584;2022-10-16T04:34:33;6.03;;;3.10;;
11962;SDS011;62678;52.130;5.584;2022-10-16T04:37:00;7.10;;;3.28;;
11962;SDS011;62678;52.130;5.584;2022-10-16T04:39:27;6.63;;;3.22;;
11962;SDS011;62678;52.130;5.584;2022-10-16T04:41:53;5.50;;;2.95;;
11962;SDS011;62678;52.130;5.584;2022-10-16T04:44:20;4.18;;;3.35;;
11962;SDS011;62678;52.130;5.584;2022-10-16T04:46:47;7.55;;;3.53;;
11962;SDS011;62678;52.130;5.584;2022-10-16T04:49:17;5.55;;;3.47;;
11962;SDS011;62678;52.130;5.584;2022-10-16T04:51:44;5.57;;;3.50;;
11962;SDS011;62678;52.130;5.584;2022-10-16T04:54:11;4.55;;;3.15;;
11962;SDS011;62678;52.130;5.584;2022-10-16T04:56:37;6.25;;;3.28;;
11962;SDS011;62678;52.130;5.584;2022-10-16T04:59:11;4.72;;;3.22;;
11962;SDS011;62678;52.130;5.584;2022-10-16T05:01:38;6.35;;;3.40;;
11962;SDS011;62678;52.130;5.584;2022-10-16T05:04:05;5.47;;;3.22;;
11962;SDS011;62678;52.130;5.584;2022-10-16T05:06:33;7.05;;;3.30;;
11962;SDS011;62678;52.130;5.584;2022-10-16T05:09:00;4.05;;;3.00;;
11962;SDS011;62678;52.130;5.584;2022-10-16T05:11:27;5.22;;;3.20;;
11962;SDS011;62678;52.130;5.584;2022-10-16T05:13:53;8.18;;;3.53;;
11962;SDS011;62678;52.130;5.584;2022-10-16T05:16:20;9.55;;;3.50;;
11962;SDS011;62678;52.130;5.584;2022-10-16T05:18:47;3.92;;;3.40;;
11962;SDS011;62678;52.130;5.584;2022-10-16T05:21:14;6.97;;;3.30;;
11962;SDS011;62678;52.130;5.584;2022-10-16T05:23:42;9.00;;;3.92;;
11962;SDS011;62678;52.130;5.584;2022-10-16T05:26:09;5.55;;;3.70;;
11962;SDS011;62678;52.130;5.584;2022-10-16T05:28:35;5.90;;;4.00;;
11962;SDS011;62678;52.130;5.584;2022-10-16T05:31:03;8.93;;;4.47;;
11962;SDS011;62678;52.130;5.584;2022-10-16T05:33:31;6.20;;;4.72;;
11962;SDS011;62678;52.130;5.584;2022-10-16T05:36:00;8.27;;;4.95;;
11962;SDS011;62678;52.130;5.584;2022-10-16T05:38:28;7.53;;;5.15;;
11962;SDS011;62678;52.130;5.584;2022-10-16T05:40:56;9.75;;;5.65;;
11962;SDS011;62678;52.130;5.584;2022-10-16T05:43:23;8.02;;;5.72;;
11962;SDS011;62678;52.130;5.584;2022-10-16T05:45:53;10.48;;;5.55;;
11962;SDS011;62678;52.130;5.584;2022-10-16T05:48:20;11.85;;;5.70;;
11962;SDS011;62678;52.130;5.584;2022-10-16T05:50:48;8.20;;;5.75;;
11962;SDS011;62678;52.130;5.584;2022-10-16T05:53:14;10.88;;;6.07;;
11962;SDS011;62678;52.130;5.584;2022-10-16T05:55:41;11.18;;;6.00;;
11962;SDS011;62678;52.130;5.584;2022-10-16T05:58:09;14.93;;;7.38;;
11962;SDS011;62678;52.130;5.584;2022-10-16T06:00:36;10.43;;;6.90;;
11962;SDS011;62678;52.130;5.584;2022-10-16T06:03:03;11.88;;;7.90;;
11962;SDS011;62678;52.130;5.584;2022-10-16T06:05:31;10.18;;;6.75;;
11962;SDS011;62678;52.130;5.584;2022-10-16T06:07:58;9.45;;;5.82;;
11962;SDS011;62678;52.130;5.584;2022-10-16T06:10:25;13.63;;;5.90;;
11962;SDS011;62678;52.130;5.584;2022-10-16T06:12:52;8.73;;;5.63;;
11962;SDS011;62678;52.130;5.584;2022-10-16T06:15:20;8.18;;;5.60;;
11962;SDS011;62678;52.130;5.584;2022-10-16T06:17:47;7.75;;;5.05;;
11962;SDS011;62678;52.130;5.584;2022-10-16T06:20:13;7.68;;;5.18;;
11962;SDS011;62678;52.130;5.584;2022-10-16T06:22:40;8.32;;;4.78;;
11962;SDS011;62678;52.130;5.584;2022-10-16T06:25:07;9.82;;;4.53;;
11962;SDS011;62678;52.130;5.584;2022-10-16T06:27:34;11.35;;;4.20;;
11962;SDS011;62678;52.130;5.584;2022-10-16T06:30:01;7.95;;;4.32;;
11962;SDS011;62678;52.130;5.584;2022-10-16T06:32:30;5.45;;;4.10;;
11962;SDS011;62678;52.130;5.584;2022-10-16T06:34:56;8.70;;;4.20;;
11962;SDS011;62678;52.130;5.584;2022-10-16T06:37:23;5.40;;;4.00;;
11962;SDS011;62678;52.130;5.584;2022-10-16T06:39:50;4.93;;;3.92;;
11962;SDS011;62678;52.130;5.584;2022-10-16T06:42:18;11.10;;;3.53;;
11962;SDS011;62678;52.130;5.584;2022-10-16T06:44:44;6.10;;;3.92;;
11962;SDS011;62678;52.130;5.584;2022-10-16T06:47:11;7.82;;;3.50;;
11962;SDS011;62678;52.130;5.584;2022-10-16T06:49:39;4.28;;;3.15;;
11962;SDS011;62678;52.130;5.584;2022-10-16T06:52:06;5.88;;;3.67;;
11962;SDS011;62678;52.130;5.584;2022-10-16T06:54:33;4.25;;;3.42;;
11962;SDS011;62678;52.130;5.584;2022-10-16T06:56:59;6.80;;;3.50;;
11962;SDS011;62678;52.130;5.584;2022-10-16T06:59:26;9.18;;;5.93;;
11962;SDS011;62678;52.130;5.584;2022-10-16T07:01:53;5.85;;;4.43;;
11962;SDS011;62678;52.130;5.584;2022-10-16T07:04:20;6.70;;;4.40;;
11962;SDS011;62678;52.130;5.584;2022-10-16T07:06:48;9.45;;;4.50;;
11962;SDS011;62678;52.130;5.584;2022-10-16T07:09:16;6.00;;;3.40;;
11962;SDS011;62678;52.130;5.584;2022-10-16T07:11:43;7.72;;;3.20;;
11962;SDS011;62678;52.130;5.584;2022-10-16T07:14:12;6.57;;;3.53;;
11962;SDS011;62678;52.130;5.584;2022-10-16T07:16:42;4.75;;;3.00;;
11962;SDS011;62678;52.130;5.584;2022-10-16T07:19:09;7.72;;;3.22;;
11962;SDS011;62678;52.130;5.584;2022-10-16T07:21:37;10.57;;;3.10;;
11962;SDS011;62678;52.130;5.584;2022-10-16T07:24:06;8.93;;;3.13;;
11962;SDS011;62678;52.130;5.584;2022-10-16T07:26:37;4.97;;;3.00;;
11962;SDS011;62678;52.130;5.584;2022-10-16T07:29:04;6.90;;;3.85;;
11962;SDS011;62678;52.130;5.584;2022-10-16T07:31:32;18.48;;;10.68;;
11962;SDS011;62678;52.130;5.584;2022-10-16T07:33:59;15.27;;;9.23;;
11962;SDS011;62678;52.130;5.584;2022-10-16T07:36:26;6.70;;;3.50;;
11962;SDS011;62678;52.130;5.584;2022-10-16T07:38:53;5.57;;;3.30;;
11962;SDS011;62678;52.130;5.584;2022-10-16T07:41:21;4.45;;;2.78;;
11962;SDS011;62678;52.130;5.584;2022-10-16T07:43:49;5.93;;;2.90;;
11962;SDS011;62678;52.130;5.584;2022-10-16T07:46:18;5.60;;;2.45;;
11962;SDS011;62678;52.130;5.584;2022-10-16T07:48:45;5.25;;;2.53;;
11962;SDS011;62678;52.130;5.584;2022-10-16T07:51:13;5.60;;;2.60;;
11962;SDS011;62678;52.130;5.584;2022-10-16T07:53:42;4.35;;;2.35;;
11962;SDS011;62678;52.130;5.584;2022-10-16T07:56:09;5.38;;;2.30;;
11962;SDS011;62678;52.130;5.584;2022-10-16T07:58:38;7.38;;;2.83;;
11962;SDS011;62678;52.130;5.584;2022-10-16T08:01:05;4.75;;;3.00;;
11962;SDS011;62678;52.130;5.584;2022-10-16T08:03:33;6.15;;;2.70;;
11962;SDS011;62678;52.130;5.584;2022-10-16T08:06:00;9.77;;;3.80;;
11962;SDS011;62678;52.130;5.584;2022-10-16T08:08:28;9.68;;;3.85;;
11962;SDS011;62678;52.130;5.584;2022-10-16T08:10:55;7.18;;;4.40;;
11962;SDS011;62678;52.130;5.584;2022-10-16T08:13:22;5.93;;;3.28;;
11962;SDS011;62678;52.130;5.584;2022-10-16T08:15:50;9.40;;;4.03;;
11962;SDS011;62678;52.130;5.584;2022-10-16T08:18:17;7.97;;;3.30;;
11962;SDS011;62678;52.130;5.584;2022-10-16T08:20:44;9.13;;;4.10;;
11962;SDS011;62678;52.130;5.584;2022-10-16T08:23:11;4.93;;;3.00;;
11962;SDS011;62678;52.130;5.584;2022-10-16T08:25:38;5.10;;;2.65;;
11962;SDS011;62678;52.130;5.584;2022-10-16T08:28:06;4.57;;;3.08;;
11962;SDS011;62678;52.130;5.584;2022-10-16T08:30:34;4.57;;;2.67;;
11962;SDS011;62678;52.130;5.584;2022-10-16T08:33:02;5.38;;;2.80;;
11962;SDS011;62678;52.130;5.584;2022-10-16T08:35:30;6.90;;;2.70;;
11962;SDS011;62678;52.130;5.584;2022-10-16T08:37:57;8.15;;;2.70;;
11962;SDS011;62678;52.130;5.584;2022-10-16T08:40:25;7.65;;;2.75;;
11962;SDS011;62678;52.130;5.584;2022-10-16T08:42:57;9.68;;;2.97;;
11962;SDS011;62678;52.130;5.584;2022-10-16T08:45:43;5.72;;;2.50;;
11962;SDS011;62678;52.130;5.584;2022-10-16T08:48:21;4.70;;;2.85;;
11962;SDS011;62678;52.130;5.584;2022-10-16T08:50:53;5.20;;;3.03;;
11962;SDS011;62678;52.130;5.584;2022-10-16T08:53:22;5.07;;;2.80;;
11962;SDS011;62678;52.130;5.584;2022-10-16T08:55:53;4.82;;;2.40;;
11962;SDS011;62678;52.130;5.584;2022-10-16T08:58:21;5.65;;;2.97;;
11962;SDS011;62678;52.130;5.584;2022-10-16T09:00:50;6.45;;;2.45;;
11962;SDS011;62678;52.130;5.584;2022-10-16T09:03:27;6.13;;;2.88;;
11962;SDS011;62678;52.130;5.584;2022-10-16T09:06:07;8.05;;;3.30;;
11962;SDS011;62678;52.130;5.584;2022-10-16T09:08:46;5.95;;;2.85;;
11962;SDS011;62678;52.130;5.584;2022-10-16T09:11:26;10.65;;;2.67;;
11962;SDS011;62678;52.130;5.584;2022-10-16T09:14:03;7.10;;;2.58;;
11962;SDS011;62678;52.130;5.584;2022-10-16T09:16:34;6.35;;;2.50;;
11962;SDS011;62678;52.130;5.584;2022-10-16T09:19:09;7.72;;;2.42;;
11962;SDS011;62678;52.130;5.584;2022-10-16T09:21:43;8.32;;;2.33;;
11962;SDS011;62678;52.130;5.584;2022-10-16T09:24:13;13.23;;;2.33;;
11962;SDS011;62678;52.130;5.584;2022-10-16T09:26:42;13.18;;;2.22;;
11962;SDS011;62678;52.130;5.584;2022-10-16T09:29:09;14.07;;;2.90;;
11962;SDS011;62678;52.130;5.584;2022-10-16T09:31:38;7.53;;;2.42;;
11962;SDS011;62678;52.130;5.584;2022-10-16T09:34:20;9.77;;;2.20;;
11962;SDS011;62678;52.130;5.584;2022-10-16T09:36:51;14.02;;;2.33;;
11962;SDS011;62678;52.130;5.584;2022-10-16T09:39:18;12.85;;;2.40;;
11962;SDS011;62678;52.130;5.584;2022-10-16T09:41:45;12.32;;;2.55;;
11962;SDS011;62678;52.130;5.584;2022-10-16T09:44:16;9.80;;;2.50;;
11962;SDS011;62678;52.130;5.584;2022-10-16T09:46:46;9.07;;;2.10;;
11962;SDS011;62678;52.130;5.584;2022-10-16T09:49:21;9.23;;;2.25;;
11962;SDS011;62678;52.130;5.584;2022-10-16T09:51:50;9.85;;;2.17;;
11962;SDS011;62678;52.130;5.584;2022-10-16T09:54:19;9.90;;;2.63;;
11962;SDS011;62678;52.130;5.584;2022-10-16T09:56:47;10.10;;;2.33;;
11962;SDS011;62678;52.130;5.584;2022-10-16T09:59:17;10.57;;;3.05;;
11962;SDS011;62678;52.130;5.584;2022-10-16T10:01:46;13.43;;;2.33;;
11962;SDS011;62678;52.130;5.584;2022-10-16T10:04:14;11.75;;;2.10;;
11962;SDS011;62678;52.130;5.584;2022-10-16T10:06:43;12.05;;;2.90;;
11962;SDS011;62678;52.130;5.584;2022-10-16T10:09:16;12.88;;;2.85;;
11962;SDS011;62678;52.130;5.584;2022-10-16T10:11:50;16.08;;;3.28;;
11962;SDS011;62678;52.130;5.584;2022-10-16T10:14:22;10.85;;;2.72;;
11962;SDS011;62678;52.130;5.584;2022-10-16T10:17:02;14.63;;;2.35;;
11962;SDS011;62678;52.130;5.584;2022-10-16T10:19:37;12.25;;;2.53;;
11962;SDS011;62678;52.130;5.584;2022-10-16T10:22:15;12.20;;;2.45;;
11962;SDS011;62678;52.130;5.584;2022-10-16T10:24:44;11.48;;;2.53;;
11962;SDS011;62678;52.130;5.584;2022-10-16T10:27:20;11.38;;;2.45;;
11962;SDS011;62678;52.130;5.584;2022-10-16T10:29:55;11.32;;;2.08;;
11962;SDS011;62678;52.130;5.584;2022-10-16T10:32:27;9.35;;;2.25;;
11962;SDS011;62678;52.130;5.584;2022-10-16T10:35:05;12.05;;;2.30;;
11962;SDS011;62678;52.130;5.584;2022-10-16T10:37:46;11.55;;;2.25;;
11962;SDS011;62678;52.130;5.584;2022-10-16T10:40:24;11.35;;;2.30;;
11962;SDS011;62678;52.130;5.584;2022-10-16T10:43:02;12.65;;;2.10;;
11962;SDS011;62678;52.130;5.584;2022-10-16T10:45:36;12.68;;;2.53;;
11962;SDS011;62678;52.130;5.584;2022-10-16T10:48:21;8.55;;;2.05;;
11962;SDS011;62678;52.130;5.584;2022-10-16T10:50:57;8.73;;;2.25;;
11962;SDS011;62678;52.130;5.584;2022-10-16T10:53:32;9.35;;;2.10;;
11962;SDS011;62678;52.130;5.584;2022-10-16T10:56:09;10.95;;;2.15;;
11962;SDS011;62678;52.130;5.584;2022-10-16T10:58:52;8.30;;;1.83;;
11962;SDS011;62678;52.130;5.584;2022-10-16T11:01:30;9.90;;;1.85;;
11962;SDS011;62678;52.130;5.584;2022-10-16T11:04:06;10.45;;;2.10;;
11962;SDS011;62678;52.130;5.584;2022-10-16T11:06:46;9.07;;;2.00;;
11962;SDS011;62678;52.130;5.584;2022-10-16T11:09:19;8.38;;;1.83;;
11962;SDS011;62678;52.130;5.584;2022-10-16T11:11:50;11.88;;;2.30;;
11962;SDS011;62678;52.130;5.584;2022-10-16T11:14:21;11.07;;;1.92;;
11962;SDS011;62678;52.130;5.584;2022-10-16T11:16:52;16.83;;;2.25;;
11962;SDS011;62678;52.130;5.584;2022-10-16T11:19:26;10.57;;;2.25;;
11962;SDS011;62678;52.130;5.584;2022-10-16T11:22:01;8.10;;;2.58;;
11962;SDS011;62678;52.130;5.584;2022-10-16T11:24:35;13.73;;;2.45;;
11962;SDS011;62678;52.130;5.584;2022-10-16T11:27:08;10.02;;;1.90;;
11962;SDS011;62678;52.130;5.584;2022-10-16T11:29:36;13.35;;;2.25;;
11962;SDS011;62678;52.130;5.584;2022-10-16T11:32:14;10.35;;;2.05;;
11962;SDS011;62678;52.130;5.584;2022-10-16T11:34:47;12.85;;;2.10;;
11962;SDS011;62678;52.130;5.584;2022-10-16T11:37:18;14.00;;;2.15;;
11962;SDS011;62678;52.130;5.584;2022-10-16T11:39:49;8.70;;;2.03;;
11962;SDS011;62678;52.130;5.584;2022-10-16T11:42:19;9.93;;;1.80;;
11962;SDS011;62678;52.130;5.584;2022-10-16T11:44:51;12.18;;;2.20;;
11962;SDS011;62678;52.130;5.584;2022-10-16T11:47:27;9.20;;;1.88;;
11962;SDS011;62678;52.130;5.584;2022-10-16T11:50:01;8.20;;;1.70;;
11962;SDS011;62678;52.130;5.584;2022-10-16T11:52:32;11.07;;;1.77;;
11962;SDS011;62678;52.130;5.584;2022-10-16T11:55:09;6.85;;;1.42;;
11962;SDS011;62678;52.130;5.584;2022-10-16T11:57:42;10.57;;;2.05;;
11962;SDS011;62678;52.130;5.584;2022-10-16T12:00:18;7.40;;;1.88;;
11962;SDS011;62678;52.130;5.584;2022-10-16T12:02:50;9.02;;;1.70;;
11962;SDS011;62678;52.130;5.584;2022-10-16T12:05:24;7.55;;;1.80;;
11962;SDS011;62678;52.130;5.584;2022-10-16T12:08:01;9.43;;;1.90;;
11962;SDS011;62678;52.130;5.584;2022-10-16T12:10:35;7.45;;;1.80;;
11962;SDS011;62678;52.130;5.584;2022-10-16T12:13:04;9.80;;;1.85;;
11962;SDS011;62678;52.130;5.584;2022-10-16T12:15:31;13.27;;;2.22;;
11962;SDS011;62678;52.130;5.584;2022-10-16T12:17:59;8.48;;;1.90;;
11962;SDS011;62678;52.130;5.584;2022-10-16T12:20:27;10.50;;;2.33;;
11962;SDS011;62678;52.130;5.584;2022-10-16T12:22:57;11.25;;;2.05;;
11962;SDS011;62678;52.130;5.584;2022-10-16T12:25:26;13.02;;;1.80;;
11962;SDS011;62678;52.130;5.584;2022-10-16T12:27:57;11.98;;;2.25;;
11962;SDS011;62678;52.130;5.584;2022-10-16T12:30:27;5.90;;;1.73;;
11962;SDS011;62678;52.130;5.584;2022-10-16T12:32:55;9.40;;;1.85;;
11962;SDS011;62678;52.130;5.584;2022-10-16T12:35:24;6.90;;;1.50;;
11962;SDS011;62678;52.130;5.584;2022-10-16T12:37:53;8.07;;;1.70;;
11962;SDS011;62678;52.130;5.584;2022-10-16T12:40:31;9.63;;;2.13;;
11962;SDS011;62678;52.130;5.584;2022-10-16T12:43:11;10.13;;;1.50;;
11962;SDS011;62678;52.130;5.584;2022-10-16T12:45:58;11.95;;;1.80;;
11962;SDS011;62678;52.130;5.584;2022-10-16T12:48:26;11.27;;;2.40;;
11962;SDS011;62678;52.130;5.584;2022-10-16T12:50:53;9.50;;;1.80;;
11962;SDS011;62678;52.130;5.584;2022-10-16T12:53:21;9.98;;;1.67;;
11962;SDS011;62678;52.130;5.584;2022-10-16T12:55:52;11.48;;;1.88;;
11962;SDS011;62678;52.130;5.584;2022-10-16T12:58:37;8.35;;;1.70;;
11962;SDS011;62678;52.130;5.584;2022-10-16T13:01:18;7.63;;;1.90;;
11962;SDS011;62678;52.130;5.584;2022-10-16T13:03:59;8.93;;;1.77;;
11962;SDS011;62678;52.130;5.584;2022-10-16T13:06:39;11.52;;;1.80;;
11962;SDS011;62678;52.130;5.584;2022-10-16T13:12:09;8.63;;;1.90;;
11962;SDS011;62678;52.130;5.584;2022-10-16T13:14:57;11.82;;;1.90;;
11962;SDS011;62678;52.130;5.584;2022-10-16T13:17:32;17.40;;;2.28;;
11962;SDS011;62678;52.130;5.584;2022-10-16T13:20:09;12.32;;;2.03;;
11962;SDS011;62678;52.130;5.584;2022-10-16T13:22:45;7.68;;;1.70;;
11962;SDS011;62678;52.130;5.584;2022-10-16T13:25:20;10.43;;;1.90;;
11962;SDS011;62678;52.130;5.584;2022-10-16T13:27:55;8.82;;;1.80;;
11962;SDS011;62678;52.130;5.584;2022-10-16T13:30:27;10.85;;;2.22;;
11962;SDS011;62678;52.130;5.584;2022-10-16T13:32:58;10.38;;;2.53;;
11962;SDS011;62678;52.130;5.584;2022-10-16T13:35:27;12.18;;;1.95;;
11962;SDS011;62678;52.130;5.584;2022-10-16T13:38:03;7.55;;;1.88;;
11962;SDS011;62678;52.130;5.584;2022-10-16T13:40:50;8.73;;;1.80;;
11962;SDS011;62678;52.130;5.584;2022-10-16T13:43:18;7.85;;;1.90;;
11962;SDS011;62678;52.130;5.584;2022-10-16T13:45:59;12.77;;;2.17;;
11962;SDS011;62678;52.130;5.584;2022-10-16T13:48:28;9.50;;;2.05;;
11962;SDS011;62678;52.130;5.584;2022-10-16T13:51:02;12.77;;;2.10;;
11962;SDS011;62678;52.130;5.584;2022-10-16T13:53:32;9.70;;;2.05;;
11962;SDS011;62678;52.130;5.584;2022-10-16T13:56:01;8.88;;;1.80;;
11962;SDS011;62678;52.130;5.584;2022-10-16T13:58:29;14.27;;;2.00;;
11962;SDS011;62678;52.130;5.584;2022-10-16T14:00:56;8.88;;;1.58;;
11962;SDS011;62678;52.130;5.584;2022-10-16T14:03:26;10.27;;;2.03;;
11962;SDS011;62678;52.130;5.584;2022-10-16T14:05:54;14.45;;;2.25;;
11962;SDS011;62678;52.130;5.584;2022-10-16T14:08:23;9.02;;;2.35;;
11962;SDS011;62678;52.130;5.584;2022-10-16T14:10:52;9.68;;;1.90;;
11962;SDS011;62678;52.130;5.584;2022-10-16T14:13:23;10.82;;;1.70;;
11962;SDS011;62678;52.130;5.584;2022-10-16T14:15:56;11.25;;;2.00;;
11962;SDS011;62678;52.130;5.584;2022-10-16T14:18:26;13.88;;;2.30;;
11962;SDS011;62678;52.130;5.584;2022-10-16T14:20:54;11.35;;;2.47;;
11962;SDS011;62678;52.130;5.584;2022-10-16T14:23:29;9.80;;;2.30;;
11962;SDS011;62678;52.130;5.584;2022-10-16T14:26:05;10.90;;;2.15;;
11962;SDS011;62678;52.130;5.584;2022-10-16T14:28:38;11.88;;;2.30;;
11962;SDS011;62678;52.130;5.584;2022-10-16T14:31:19;10.15;;;2.10;;
11962;SDS011;62678;52.130;5.584;2022-10-16T14:33:53;11.07;;;2.28;;
11962;SDS011;62678;52.130;5.584;2022-10-16T14:36:20;15.80;;;2.08;;
11962;SDS011;62678;52.130;5.584;2022-10-16T14:38:49;13.85;;;2.45;;
11962;SDS011;62678;52.130;5.584;2022-10-16T14:41:23;11.23;;;1.95;;
11962;SDS011;62678;52.130;5.584;2022-10-16T14:43:51;10.73;;;2.03;;
11962;SDS011;62678;52.130;5.584;2022-10-16T14:46:21;8.00;;;2.20;;
11962;SDS011;62678;52.130;5.584;2022-10-16T14:48:57;16.30;;;2.03;;
11962;SDS011;62678;52.130;5.584;2022-10-16T14:51:28;13.18;;;2.72;;
11962;SDS011;62678;52.130;5.584;2022-10-16T14:53:55;9.05;;;1.75;;
11962;SDS011;62678;52.130;5.584;2022-10-16T14:56:22;11.25;;;2.03;;
11962;SDS011;62678;52.130;5.584;2022-10-16T14:58:51;11.75;;;1.90;;
11962;SDS011;62678;52.130;5.584;2022-10-16T15:01:18;7.97;;;1.77;;
11962;SDS011;62678;52.130;5.584;2022-10-16T15:03:45;15.30;;;2.55;;